ADDS METAR Data INFO
IDs: Format: Raw Decoded Include TAF

Data at: 1958 UTC 15 Dec 2017

PANI 151856Z AUTO 08015G21KT 10SM FEW044 BKN065 00/M05 A2910 RMK AO2 PK WND 08026/1814 PRESFR SLP825 T00001050 FZRANO
PANI 151356Z AUTO 10006KT 10SM CLR M04/M05 A2936 RMK AO2 SLP910 T10391050 FZRANO
PANI 151256Z AUTO 10006KT 10SM CLR M06/M06 A2939 RMK AO2 SLP921 T10561061 FZRANO
PANI 151156Z AUTO 10005KT 10SM CLR M07/M08 A2942 RMK AO2 SLP933 T10721078 11072 21117 58025 FZRANO
PANI 150956Z AUTO 00000KT 10SM CLR M11/M12 A2949 RMK AO2 SLP956 T11111122 FZRANO
PANI 150656Z AUTO 08003KT 10SM CLR M08/M09 A2953 RMK AO2 SLP968 T10831094 FZRANO
PANI 150303Z AUTO 08006KT 10SM SCT004 M06/M06 A2955 RMK AO2 FZRANO
PANI 150256Z AUTO 08005KT 10SM BKN004 M06/M06 A2955 RMK AO2 SNB26E41 SLP976 P0000 60000 T10561061 58001 FZRANO
PANI 150122Z AUTO 11004KT 10SM SCT004 OVC120 M05/M06 A2955 RMK AO2 FZRANO
PANI 150033Z AUTO 10006KT 10SM OVC006 M04/M06 A2956 RMK AO2 FZRANO
PANI 142356Z AUTO 10004KT 9SM OVC004 M05/M06 A2957 RMK AO2 SLP981 T10501056 11039 21056 56003 FZRANO
PANI 142256Z AUTO 11006KT 10SM OVC110 M05/M06 A2957 RMK AO2 SLP982 T10501056 FZRANO
PANI 142056Z AUTO 00000KT 10SM FEW009 BKN100 M06/M06 A2958 RMK AO2 SLP985 T10561061 56005 FZRANO
PANI 142025Z AUTO 00000KT 10SM SCT010 BKN095 M05/M06 A2958 RMK AO2 FZRANO
PANI 141956Z AUTO 07004KT 10SM OVC010 M04/M05 A2958 RMK AO2 CIG 008V013 SLP985 T10441050 FZRANO
PANI 141934Z AUTO 00000KT 10SM FEW006 BKN012 BKN090 M06/M06 A2958 RMK AO2 FZRANO
PANI 141906Z AUTO 00000KT 10SM SCT004 BKN095 M04/M05 A2958 RMK AO2 FZRANO
PANI 141856Z AUTO 00000KT 7SM SCT004 BKN008 M04/M05 A2958 RMK AO2 CIG 007V011 SLP987 T10441050 FZRANO
PANI 141809Z AUTO 00000KT 3SM BR SCT011 OVC015 M04/M04 A2959 RMK AO2 FZRANO
PANI 141617Z AUTO 00000KT 10SM OVC009 M04/M04 A2960 RMK AO2 CIG 005V011 FZRANO
PANI 141518Z AUTO 00000KT 10SM OVC005 M03/M04 A2961 RMK AO2 FZRANO
PANI 141414Z AUTO 00000KT 9SM BKN005 OVC008 M03/M04 A2961 RMK AO2 CIG 003V007 FZRANO
PANI 141356Z AUTO 00000KT 10SM BKN009 OVC015 M03/M04 A2961 RMK AO2 CIG 006V012 SLP996 T10331044 FZRANO
PANI 141256Z AUTO 00000KT 10SM OVC006 M03/M03 A2962 RMK AO2 SLP000 T10281033 FZRANO
PANI 140956Z AUTO 00000KT 10SM OVC006 M04/M04 A2961 RMK AO2 SLP995 T10391044 FZRANO
PANI 140910Z AUTO 00000KT 10SM BKN006 M03/M04 A2960 RMK AO2 FZRANO
PANI 140856Z AUTO 00000KT 10SM FEW006 M03/M03 A2960 RMK AO2 SLP992 T10281033 400501028 51019 FZRANO
PANI 140839Z AUTO 26008KT 10SM SCT006 BKN055 M03/M03 A2959 RMK AO2 FZRANO